Time;durP1;ratioP1;P1;durP2;ratioP2;P2;SDS_P1;SDS_P2;PMS_P1;PMS_P2;Temp;Humidity;BMP_temperature;BMP_pressure;BME280_temperature;BME280_humidity;BME280_pressure;Samples;Min_cycle;Max_cycle;Signal;HPM_P1;HPM_P2
2023/12/10 00:00:45;;;;;;;3.63;2.33;;;;;;;8.42;100.00;97431.31;4094757;28;20219;-45
2023/12/10 00:02:46;;;;;;;13.48;3.90;;;;;;;8.51;100.00;97439.84;4090618;28;20222;-44
2023/12/10 00:04:48;;;;;;;6.45;1.65;;;;;;;8.49;100.00;97444.75;4092698;28;20208;-45
2023/12/10 00:06:50;;;;;;;9.25;2.38;;;;;;;8.53;100.00;97443.09;4096549;28;20253;-44
2023/12/10 00:08:52;;;;;;;12.30;3.25;;;;;;;8.49;100.00;97442.00;4085535;29;20670;-44
2023/12/10 00:10:58;;;;;;;3.70;2.58;;;;;;;8.52;100.00;97436.84;4090416;28;20212;-44
2023/12/10 00:13:00;;;;;;;11.73;3.30;;;;;;;8.52;100.00;97446.91;4108076;28;20313;-44
2023/12/10 00:15:03;;;;;;;5.18;1.90;;;;;;;8.57;100.00;97449.69;4102435;28;20243;-44
2023/12/10 00:17:05;;;;;;;4.53;2.15;;;;;;;8.55;100.00;97457.31;4091124;28;20278;-44
2023/12/10 00:19:07;;;;;;;5.95;4.07;;;;;;;8.66;100.00;97445.38;4089604;28;20219;-44
2023/12/10 00:21:12;;;;;;;5.50;2.25;;;;;;;8.60;100.00;97451.88;4094167;28;20219;-44
2023/12/10 00:23:14;;;;;;;6.22;3.33;;;;;;;8.65;100.00;97462.81;4095199;28;20211;-44
2023/12/10 00:25:15;;;;;;;8.63;3.20;;;;;;;8.58;100.00;97473.13;4105665;28;20864;-44
2023/12/10 00:27:17;;;;;;;6.10;2.35;;;;;;;8.55;100.00;97468.22;4091176;28;20302;-44
2023/12/10 00:29:19;;;;;;;3.00;2.80;;;;;;;8.54;100.00;97467.38;4103928;28;20238;-44
2023/12/10 00:31:20;;;;;;;6.53;1.80;;;;;;;8.53;100.00;97486.72;4104360;28;20697;-44
2023/12/10 00:33:23;;;;;;;15.82;3.63;;;;;;;8.50;100.00;97476.34;4091111;28;20242;-45
2023/12/10 00:35:25;;;;;;;10.23;1.85;;;;;;;8.52;100.00;97474.19;4092290;28;20208;-45
2023/12/10 00:37:30;;;;;;;11.73;2.92;;;;;;;8.43;100.00;97482.03;4085716;28;20245;-45
2023/12/10 00:39:31;;;;;;;8.68;2.83;;;;;;;8.42;100.00;97479.59;4106616;28;20684;-44
2023/12/10 00:41:33;;;;;;;8.57;2.67;;;;;;;8.46;100.00;97484.25;4086693;28;20282;-44
2023/12/10 00:43:35;;;;;;;9.85;2.60;;;;;;;8.35;100.00;97495.34;4092769;28;20215;-45
2023/12/10 00:45:36;;;;;;;15.52;4.22;;;;;;;8.36;100.00;97496.97;4106711;28;20218;-44
2023/12/10 00:47:38;;;;;;;6.78;1.55;;;;;;;8.42;100.00;97495.94;4088293;28;20235;-43
2023/12/10 00:49:40;;;;;;;2.15;1.90;;;;;;;8.41;100.00;97499.75;4088863;28;20532;-45
2023/12/10 00:51:42;;;;;;;6.85;2.80;;;;;;;8.43;100.00;97513.94;4089988;28;21142;-44
2023/12/10 00:53:43;;;;;;;5.78;2.10;;;;;;;8.39;100.00;97507.34;4090319;28;21179;-44
2023/12/10 00:55:46;;;;;;;5.57;2.47;;;;;;;8.40;100.00;97508.97;4091366;28;20211;-44
2023/12/10 00:57:48;;;;;;;17.30;2.38;;;;;;;8.43;100.00;97513.94;4090880;28;20242;-44
2023/12/10 00:59:50;;;;;;;3.20;2.92;;;;;;;8.44;100.00;97526.47;4106291;28;20210;-44
2023/12/10 01:01:54;;;;;;;11.25;3.42;;;;;;;8.47;100.00;97531.38;4106413;28;20207;-44
2023/12/10 01:03:56;;;;;;;14.02;2.00;;;;;;;8.46;100.00;97529.75;4086401;28;20241;-44
2023/12/10 01:05:57;;;;;;;17.13;2.20;;;;;;;8.50;100.00;97544.50;4097045;28;20227;-44
2023/12/10 01:07:59;;;;;;;12.07;2.67;;;;;;;8.49;100.00;97551.84;4095473;28;20558;-44
2023/12/10 01:10:01;;;;;;;3.40;3.13;;;;;;;8.55;100.00;97550.00;4097861;28;20214;-45
2023/12/10 01:12:07;;;;;;;14.73;2.72;;;;;;;8.52;100.00;97564.97;4104263;28;20612;-45
2023/12/10 01:14:08;;;;;;;3.42;2.67;;;;;;;8.52;100.00;97556.81;4103954;28;20294;-44
2023/12/10 01:16:12;;;;;;;2.05;1.73;;;;;;;8.49;100.00;97562.75;4085306;28;20601;-43
2023/12/10 01:18:15;;;;;;;5.70;1.50;;;;;;;8.57;100.00;97558.75;4104200;28;20210;-45
2023/12/10 01:20:17;;;;;;;18.10;3.75;;;;;;;8.55;100.00;97572.63;4091697;28;20927;-45
2023/12/10 01:22:18;;;;;;;5.13;2.13;;;;;;;8.57;100.00;97578.66;4096563;28;20866;-43
2023/12/10 01:24:20;;;;;;;3.50;1.77;;;;;;;8.47;100.00;97569.56;4094635;28;20215;-44
2023/12/10 01:26:22;;;;;;;12.48;3.25;;;;;;;8.48;100.00;97571.22;4091448;28;20322;-44
2023/12/10 01:28:24;;;;;;;16.67;2.03;;;;;;;8.44;100.00;97570.09;4091903;28;20212;-44
2023/12/10 01:30:26;;;;;;;2.10;1.92;;;;;;;8.46;100.00;97574.19;4090178;28;20227;-44
2023/12/10 01:32:28;;;;;;;7.78;2.28;;;;;;;8.43;100.00;97580.16;4104201;28;20206;-44
2023/12/10 01:34:30;;;;;;;2.00;1.38;;;;;;;8.39;100.00;97586.38;4077247;28;20311;-44
2023/12/10 01:36:32;;;;;;;3.65;1.98;;;;;;;8.36;100.00;97612.25;4093149;28;20234;-43
2023/12/10 01:38:34;;;;;;;3.00;2.70;;;;;;;8.32;100.00;97626.66;4106751;28;20215;-44
2023/12/10 01:40:36;;;;;;;6.07;2.55;;;;;;;8.23;100.00;97636.38;4088854;28;20215;-44
2023/12/10 01:42:37;;;;;;;2.75;2.00;;;;;;;8.11;100.00;97636.50;4103187;28;20925;-45
2023/12/10 01:44:39;;;;;;;7.07;4.32;;;;;;;8.08;100.00;97638.91;4090575;28;20254;-44
2023/12/10 01:46:41;;;;;;;8.63;3.05;;;;;;;7.98;100.00;97638.78;4091629;28;20235;-44
2023/12/10 01:48:44;;;;;;;11.07;1.67;;;;;;;7.89;100.00;97653.94;4107029;28;20210;-45
2023/12/10 01:50:49;;;;;;;5.05;2.78;;;;;;;7.81;100.00;97657.13;4068489;29;20675;-44
2023/12/10 01:52:51;;;;;;;2.33;1.48;;;;;;;7.79;100.00;97675.59;4071192;29;20207;-44
2023/12/10 01:54:53;;;;;;;2.45;1.63;;;;;;;7.79;100.00;97665.53;4101792;28;20238;-44
2023/12/10 01:56:55;;;;;;;1.80;1.20;;;;;;;7.73;100.00;97665.72;4072568;29;20249;-45
2023/12/10 01:59:07;;;;;;;4.55;1.05;;;;;;;7.58;100.00;97668.25;4073951;28;20273;-44
2023/12/10 02:01:09;;;;;;;11.30;1.90;;;;;;;7.53;100.00;97673.59;4088192;28;20215;-44
2023/12/10 02:03:11;;;;;;;1.83;1.73;;;;;;;7.54;100.00;97684.25;4070721;29;20307;-45
2023/12/10 02:05:13;;;;;;;0.80;0.75;;;;;;;7.47;100.00;97677.31;4088971;28;20243;-45
2023/12/10 02:07:15;;;;;;;4.10;1.48;;;;;;;7.47;100.00;97682.78;4088568;28;20246;-45
2023/12/10 02:09:18;;;;;;;2.33;1.40;;;;;;;7.48;100.00;97670.84;4091333;28;20211;-44
2023/12/10 02:11:20;;;;;;;1.75;1.65;;;;;;;7.42;100.00;97680.00;4089956;28;20208;-44
2023/12/10 02:13:23;;;;;;;3.40;3.17;;;;;;;7.43;100.00;97692.53;4098332;28;20664;-44
2023/12/10 02:15:27;;;;;;;5.07;1.55;;;;;;;7.42;100.00;97723.53;4089089;28;20203;-44
2023/12/10 02:17:29;;;;;;;1.92;1.83;;;;;;;7.27;100.00;97704.25;4086802;28;20608;-45
2023/12/10 02:19:32;;;;;;;1.88;1.35;;;;;;;7.27;100.00;97693.38;4087122;28;20215;-45
2023/12/10 02:21:34;;;;;;;5.85;2.83;;;;;;;7.29;100.00;97688.50;4087046;28;20573;-44
2023/12/10 02:24:05;;;;;;;3.78;1.80;;;;;;;7.27;100.00;97682.47;4092355;28;20208;-45
2023/12/10 02:26:07;;;;;;;5.93;1.60;;;;;;;7.27;100.00;97693.38;4085070;28;20642;-44
2023/12/10 02:28:09;;;;;;;6.80;2.17;;;;;;;7.22;100.00;97690.59;4103395;28;20241;-45
2023/12/10 02:30:11;;;;;;;9.00;1.83;;;;;;;7.33;100.00;97681.47;4096119;28;20222;-45
2023/12/10 02:32:13;;;;;;;2.72;2.13;;;;;;;7.32;100.00;97680.69;4091413;28;20211;-44
2023/12/10 02:34:15;;;;;;;1.63;1.58;;;;;;;7.35;100.00;97668.47;4091315;28;20218;-44
2023/12/10 02:36:17;;;;;;;6.88;2.45;;;;;;;7.30;100.00;97680.09;4093642;28;20601;-45
2023/12/10 02:38:21;;;;;;;1.33;1.23;;;;;;;7.34;100.00;97683.13;4095995;28;20251;-44
2023/12/10 02:40:23;;;;;;;3.47;2.13;;;;;;;7.31;100.00;97689.09;4094866;28;20213;-44
2023/12/10 02:42:24;;;;;;;0.80;0.80;;;;;;;7.30;100.00;97682.00;4099950;28;21141;-45
2023/12/10 02:44:31;;;;;;;1.65;1.40;;;;;;;7.32;100.00;97709.78;4104822;28;20269;-44
2023/12/10 02:46:33;;;;;;;2.92;1.45;;;;;;;7.39;100.00;97718.59;4085724;28;20290;-44
2023/12/10 02:48:35;;;;;;;2.20;1.33;;;;;;;7.36;100.00;97724.53;4104450;28;20241;-46
2023/12/10 02:50:36;;;;;;;6.82;1.88;;;;;;;7.39;100.00;97713.13;4089789;28;20250;-44
2023/12/10 02:52:38;;;;;;;10.73;2.55;;;;;;;7.34;100.00;97726.66;4093597;28;20630;-45
2023/12/10 02:54:40;;;;;;;3.70;1.48;;;;;;;7.31;100.00;97722.56;4097910;28;20603;-44
2023/12/10 02:56:42;;;;;;;9.43;1.50;;;;;;;7.27;100.00;97715.97;4104830;28;20226;-44
2023/12/10 02:58:43;;;;;;;1.55;1.27;;;;;;;7.21;100.00;97716.16;4088150;28;20218;-44
2023/12/10 03:00:45;;;;;;;1.65;1.05;;;;;;;7.25;100.00;97723.56;4085517;28;20214;-44
2023/12/10 03:02:47;;;;;;;2.05;1.85;;;;;;;7.25;100.00;97725.44;4086641;28;20210;-45
2023/12/10 03:04:49;;;;;;;10.05;2.42;;;;;;;7.30;100.00;97725.53;4091656;28;20219;-45
2023/12/10 03:06:50;;;;;;;5.88;1.67;;;;;;;7.34;100.00;97726.66;4105570;28;20856;-46
2023/12/10 03:08:53;;;;;;;6.07;1.95;;;;;;;7.31;100.00;97727.19;4090559;28;20302;-46
2023/12/10 03:10:54;;;;;;;4.75;1.67;;;;;;;7.37;100.00;97728.91;4105978;28;20652;-45
2023/12/10 03:12:56;;;;;;;4.13;1.55;;;;;;;7.32;100.00;97732.38;4086332;28;20520;-46
2023/12/10 03:14:58;;;;;;;1.38;1.13;;;;;;;7.38;100.00;97733.28;4092354;28;20273;-47
2023/12/10 03:16:59;;;;;;;2.00;1.90;;;;;;;7.38;100.00;97746.88;4072022;29;21770;-44
2023/12/10 03:19:01;;;;;;;2.42;1.55;;;;;;;7.45;100.00;97744.81;4094626;28;20218;-45
2023/12/10 03:21:03;;;;;;;4.55;1.38;;;;;;;7.48;100.00;97755.22;4089803;28;20235;-46
2023/12/10 03:23:05;;;;;;;4.70;1.95;;;;;;;7.50;100.00;97758.50;4088212;28;20319;-45
2023/12/10 03:25:07;;;;;;;7.47;2.08;;;;;;;7.43;100.00;97757.84;4108209;28;20211;-46
2023/12/10 03:27:09;;;;;;;13.45;2.75;;;;;;;7.50;100.00;97753.88;4097444;28;20223;-45
2023/12/10 03:29:10;;;;;;;7.70;2.22;;;;;;;7.42;100.00;97745.31;4089555;28;20212;-44
2023/12/10 03:31:12;;;;;;;2.75;2.17;;;;;;;7.44;100.00;97754.03;4095348;28;20925;-45
2023/12/10 03:33:14;;;;;;;3.22;2.78;;;;;;;7.55;100.00;97750.41;4108595;28;20265;-45
2023/12/10 03:35:16;;;;;;;2.67;2.47;;;;;;;7.53;100.00;97768.88;4096047;28;20250;-44
2023/12/10 03:37:17;;;;;;;9.35;2.60;;;;;;;7.55;100.00;97772.19;4092864;28;20231;-45
2023/12/10 03:39:19;;;;;;;15.20;2.42;;;;;;;7.55;100.00;97783.09;4083529;29;20212;-46
2023/12/10 03:41:21;;;;;;;7.40;2.25;;;;;;;7.56;100.00;97796.41;4098618;28;20214;-45
2023/12/10 03:43:22;;;;;;;8.60;2.17;;;;;;;7.53;100.00;97790.66;4094339;28;20215;-44
2023/12/10 03:45:24;;;;;;;3.33;2.38;;;;;;;7.57;100.00;97776.28;4109493;28;20210;-44
2023/12/10 03:47:26;;;;;;;7.28;2.28;;;;;;;7.59;100.00;97787.78;4091056;28;20254;-45
2023/12/10 03:49:28;;;;;;;2.65;1.60;;;;;;;7.58;100.00;97788.84;4091609;28;20216;-45
2023/12/10 03:51:30;;;;;;;7.55;1.63;;;;;;;7.57;100.00;97797.25;4083015;28;20227;-45
2023/12/10 03:53:33;;;;;;;2.30;2.15;;;;;;;7.56;100.00;97795.63;4096775;28;20202;-44
2023/12/10 03:55:35;;;;;;;1.98;1.60;;;;;;;7.62;100.00;97786.47;4112270;28;20281;-45
2023/12/10 03:57:37;;;;;;;2.38;2.15;;;;;;;7.59;100.00;97789.66;4095683;28;20654;-44
2023/12/10 03:59:40;;;;;;;3.30;1.55;;;;;;;7.61;100.00;97793.78;4094439;28;20223;-44
2023/12/10 04:01:43;;;;;;;3.33;1.83;;;;;;;7.60;100.00;97794.88;4095897;28;20545;-45
2023/12/10 04:03:45;;;;;;;16.95;2.70;;;;;;;7.66;100.00;97802.03;4092134;28;20213;-46
2023/12/10 04:05:47;;;;;;;2.80;1.63;;;;;;;7.60;100.00;97823.97;4110086;28;20751;-45
2023/12/10 04:07:48;;;;;;;5.57;1.77;;;;;;;7.68;100.00;97818.13;4083545;29;20228;-45
2023/12/10 04:09:50;;;;;;;2.15;1.52;;;;;;;7.63;100.00;97807.16;4100827;28;20644;-45
2023/12/10 04:11:55;;;;;;;5.18;3.08;;;;;;;7.67;100.00;97802.84;4094338;28;20217;-45
2023/12/10 04:13:57;;;;;;;3.25;1.52;;;;;;;7.69;100.00;97795.28;4092949;28;20249;-45
2023/12/10 04:16:00;;;;;;;4.07;2.22;;;;;;;7.68;100.00;97805.31;4099025;28;20314;-44
2023/12/10 04:18:05;;;;;;;5.95;1.33;;;;;;;7.67;100.00;97819.19;4072057;28;20215;-46
2023/12/10 04:20:07;;;;;;;2.30;2.15;;;;;;;7.69;100.00;97817.06;4096582;28;20625;-44
2023/12/10 04:22:09;;;;;;;10.13;3.50;;;;;;;7.72;100.00;97811.09;4097550;28;20214;-45
2023/12/10 04:24:11;;;;;;;2.33;2.13;;;;;;;7.68;100.00;97809.97;4111017;28;20269;-45
2023/12/10 04:26:13;;;;;;;2.53;1.90;;;;;;;7.66;100.00;97822.97;4097863;28;20335;-44
2023/12/10 04:28:15;;;;;;;4.80;2.25;;;;;;;7.64;100.00;97823.25;4099931;28;20582;-46
2023/12/10 04:30:19;;;;;;;5.22;3.08;;;;;;;7.71;100.00;97820.34;4110979;28;20616;-44
2023/12/10 04:32:21;;;;;;;2.53;2.30;;;;;;;7.69;100.00;97817.06;4098642;28;20294;-44
2023/12/10 04:34:28;;;;;;;2.53;0.80;;;;;;;7.73;100.00;97824.47;4100490;28;20246;-44
2023/12/10 04:36:30;;;;;;;4.00;1.83;;;;;;;7.71;100.00;97826.63;4109518;28;20321;-46
2023/12/10 04:38:32;;;;;;;4.38;2.38;;;;;;;7.72;100.00;97822.00;4089328;28;20223;-44
2023/12/10 04:40:34;;;;;;;9.57;1.70;;;;;;;7.74;100.00;97819.84;4090228;28;20215;-45
2023/12/10 04:42:35;;;;;;;4.20;1.83;;;;;;;7.77;100.00;97830.25;4104007;28;20214;-44
2023/12/10 04:44:37;;;;;;;8.20;2.60;;;;;;;7.76;100.00;97815.78;4103405;28;20290;-44
2023/12/10 04:46:39;;;;;;;4.00;2.38;;;;;;;7.72;100.00;97822.00;4088603;28;20243;-47
2023/12/10 04:48:41;;;;;;;6.10;2.08;;;;;;;7.77;100.00;97813.91;4096856;28;20239;-45
2023/12/10 04:50:43;;;;;;;1.98;1.30;;;;;;;7.82;100.00;97812.06;4116302;28;20851;-44
2023/12/10 04:52:44;;;;;;;1.85;1.73;;;;;;;7.80;100.00;97818.84;4094615;28;20219;-45
2023/12/10 04:54:46;;;;;;;2.35;2.15;;;;;;;7.75;100.00;97816.06;4112597;28;20261;-44
2023/12/10 04:56:48;;;;;;;4.38;3.17;;;;;;;7.79;100.00;97817.19;4094682;28;20227;-44
2023/12/10 04:58:49;;;;;;;1.88;1.75;;;;;;;7.83;100.00;97812.91;4096514;28;20211;-45
2023/12/10 05:00:51;;;;;;;2.95;1.52;;;;;;;7.80;100.00;97829.72;4088871;28;20212;-44
2023/12/10 05:02:53;;;;;;;1.75;1.65;;;;;;;7.88;100.00;97832.06;4108395;28;20209;-45
2023/12/10 05:04:55;;;;;;;6.60;3.38;;;;;;;7.82;100.00;97833.06;4093011;28;20413;-44
2023/12/10 05:06:59;;;;;;;8.45;1.65;;;;;;;7.84;100.00;97837.19;4095460;28;20680;-45
2023/12/10 05:09:03;;;;;;;2.25;2.05;;;;;;;7.79;100.00;97844.44;4098555;28;20231;-45
2023/12/10 05:11:05;;;;;;;2.22;2.13;;;;;;;7.82;100.00;97849.41;4098448;28;20211;-45
2023/12/10 05:13:07;;;;;;;3.80;2.63;;;;;;;7.77;100.00;97847.41;4112133;28;20210;-43
2023/12/10 05:15:09;;;;;;;4.68;2.42;;;;;;;7.81;100.00;97848.56;4105388;28;20238;-45
2023/12/10 05:17:11;;;;;;;10.60;2.35;;;;;;;7.77;100.00;97858.31;4091607;28;20282;-44
2023/12/10 05:19:12;;;;;;;11.38;2.60;;;;;;;7.79;100.00;97847.16;4087374;28;20207;-45
2023/12/10 05:21:14;;;;;;;4.97;1.52;;;;;;;7.81;100.00;97854.00;4111660;28;20230;-44
2023/12/10 05:23:16;;;;;;;2.35;2.17;;;;;;;7.84;100.00;97863.56;4111430;28;20203;-44
2023/12/10 05:25:17;;;;;;;4.70;2.20;;;;;;;7.89;100.00;97866.38;4094254;28;20209;-44
2023/12/10 05:27:19;;;;;;;1.98;1.70;;;;;;;7.83;100.00;97873.63;4111262;28;20234;-44
2023/12/10 05:29:21;;;;;;;2.00;1.45;;;;;;;7.84;100.00;97869.03;4112705;28;20261;-46
2023/12/10 05:31:27;;;;;;;2.63;0.90;;;;;;;7.83;100.00;97872.81;4093811;28;20211;-45
2023/12/10 05:33:29;;;;;;;2.15;2.05;;;;;;;7.80;100.00;97867.84;4088696;28;20257;-47
2023/12/10 05:35:32;;;;;;;5.97;1.60;;;;;;;7.79;100.00;97877.09;4093580;28;20750;-44
2023/12/10 05:37:33;;;;;;;4.57;1.88;;;;;;;7.77;100.00;97874.66;4104736;28;20211;-44
2023/12/10 05:39:35;;;;;;;1.92;1.20;;;;;;;7.81;100.00;97869.53;4096893;28;20211;-45
2023/12/10 05:41:37;;;;;;;3.13;1.88;;;;;;;7.71;100.00;97869.34;4095719;28;20208;-44
2023/12/10 05:43:39;;;;;;;9.48;2.33;;;;;;;7.77;100.00;97868.38;4104857;28;20207;-45
2023/12/10 05:45:40;;;;;;;6.57;2.10;;;;;;;7.71;100.00;97883.81;4087169;28;20219;-45
2023/12/10 05:47:42;;;;;;;1.00;1.00;;;;;;;7.72;100.00;97881.91;4093856;28;20302;-45
2023/12/10 05:49:44;;;;;;;4.65;1.10;;;;;;;7.73;100.00;97894.44;4094441;28;20220;-45
2023/12/10 05:51:46;;;;;;;5.82;2.97;;;;;;;7.79;100.00;97893.44;4112023;28;20213;-44
2023/12/10 05:53:48;;;;;;;2.65;1.83;;;;;;;7.77;100.00;97901.03;4098342;28;20336;-45
2023/12/10 05:55:49;;;;;;;1.45;1.38;;;;;;;7.76;100.00;97904.84;4106233;28;20218;-45
2023/12/10 05:57:51;;;;;;;1.67;1.52;;;;;;;7.73;100.00;97910.78;4089722;28;20761;-45
2023/12/10 05:59:53;;;;;;;1.88;1.77;;;;;;;7.79;100.00;97910.63;4085753;28;20216;-45
2023/12/10 06:01:56;;;;;;;1.58;1.48;;;;;;;7.77;100.00;97931.84;4107395;28;20207;-46
2023/12/10 06:03:59;;;;;;;7.22;1.98;;;;;;;7.78;100.00;97928.03;4096966;28;20299;-45
2023/12/10 06:06:01;;;;;;;1.73;1.63;;;;;;;7.79;100.00;97931.56;4099207;28;20242;-44
2023/12/10 06:08:03;;;;;;;1.25;1.02;;;;;;;7.85;100.00;97936.03;4097358;28;20235;-45
2023/12/10 06:10:05;;;;;;;6.45;2.88;;;;;;;7.81;100.00;97934.91;4100420;28;20207;-44
2023/12/10 06:12:07;;;;;;;4.25;1.75;;;;;;;7.80;100.00;97939.50;4092952;28;20214;-45
2023/12/10 06:14:09;;;;;;;2.47;1.80;;;;;;;7.80;100.00;97960.44;4095831;28;20612;-44
2023/12/10 06:16:11;;;;;;;1.67;1.65;;;;;;;7.90;100.00;97938.84;4106136;28;20231;-45
2023/12/10 06:18:13;;;;;;;3.88;2.50;;;;;;;7.88;100.00;97946.44;4107567;28;20617;-44
2023/12/10 06:20:15;;;;;;;3.38;1.48;;;;;;;7.84;100.00;97957.00;4098639;28;20625;-44
2023/12/10 06:22:16;;;;;;;12.70;2.15;;;;;;;7.87;100.00;97951.06;4090761;28;20307;-44
2023/12/10 06:24:18;;;;;;;8.50;1.17;;;;;;;7.83;100.00;97966.22;4109387;28;20635;-44
2023/12/10 06:26:21;;;;;;;38.25;2.65;;;;;;;7.84;100.00;97967.91;4093281;28;20251;-44
2023/12/10 06:28:22;;;;;;;3.55;2.72;;;;;;;7.81;100.00;97973.84;4094289;28;20227;-44
2023/12/10 06:30:24;;;;;;;2.05;1.77;;;;;;;7.85;100.00;97969.56;4092375;28;20677;-45
2023/12/10 06:32:26;;;;;;;4.50;1.98;;;;;;;7.86;100.00;97975.81;4109423;28;20271;-44
2023/12/10 06:34:30;;;;;;;2.90;2.67;;;;;;;7.91;100.00;97981.34;4107624;28;20206;-44
2023/12/10 06:36:32;;;;;;;5.82;2.58;;;;;;;7.98;100.00;97976.56;4094440;28;20230;-45
2023/12/10 06:38:35;;;;;;;3.83;1.75;;;;;;;7.92;100.00;97985.72;4092260;28;20245;-45
2023/12/10 06:40:39;;;;;;;2.75;1.83;;;;;;;7.89;100.00;97987.03;4105314;28;20207;-44
2023/12/10 06:42:41;;;;;;;1.98;1.52;;;;;;;7.92;100.00;98007.50;4111067;28;20247;-44
2023/12/10 06:44:43;;;;;;;3.33;2.15;;;;;;;7.97;100.00;98010.34;4098163;28;20262;-44
2023/12/10 06:46:44;;;;;;;3.20;1.15;;;;;;;7.93;100.00;98001.00;4108593;28;20239;-45
2023/12/10 06:48:46;;;;;;;2.22;1.30;;;;;;;7.91;100.00;98000.41;4096917;28;20686;-45
2023/12/10 06:50:48;;;;;;;6.68;3.38;;;;;;;7.94;100.00;98008.09;4096401;28;20211;-45
2023/12/10 06:52:50;;;;;;;5.68;2.40;;;;;;;7.93;100.00;98006.44;4114458;28;20297;-44
2023/12/10 06:54:51;;;;;;;1.60;1.30;;;;;;;7.87;100.00;98005.53;4111280;28;20214;-45
2023/12/10 06:57:00;;;;;;;2.47;2.17;;;;;;;7.92;100.00;98012.97;4108458;28;20248;-44
2023/12/10 06:59:01;;;;;;;3.05;2.75;;;;;;;7.94;100.00;98013.53;4109402;28;20214;-45
2023/12/10 07:01:04;;;;;;;7.28;1.77;;;;;;;8.00;100.00;98031.63;4089106;28;20248;-45
2023/12/10 07:03:07;;;;;;;7.63;1.42;;;;;;;7.97;100.00;98032.13;4094863;28;20219;-44
2023/12/10 07:05:08;;;;;;;1.55;1.45;;;;;;;7.98;100.00;98039.22;4097311;28;20211;-45
2023/12/10 07:07:10;;;;;;;1.98;1.45;;;;;;;8.02;100.00;98034.94;4081284;29;20231;-44
2023/12/10 07:09:12;;;;;;;1.75;1.55;;;;;;;8.00;100.00;98045.25;4114566;28;20221;-43
2023/12/10 07:11:14;;;;;;;4.63;1.45;;;;;;;8.06;100.00;98031.47;4095965;28;20211;-44
2023/12/10 07:13:19;;;;;;;3.17;1.88;;;;;;;8.07;100.00;98038.59;4106652;28;20309;-46
2023/12/10 07:15:21;;;;;;;7.50;2.13;;;;;;;8.03;100.00;98042.03;4093553;28;20222;-45
2023/12/10 07:17:23;;;;;;;8.90;1.83;;;;;;;7.96;100.00;98030.47;4112350;28;20233;-45
2023/12/10 07:19:25;;;;;;;2.28;1.55;;;;;;;8.01;100.00;98044.19;4082294;29;20239;-44
2023/12/10 07:21:27;;;;;;;2.30;1.58;;;;;;;8.03;100.00;98031.97;4112369;28;20788;-45
2023/12/10 07:23:29;;;;;;;10.68;2.00;;;;;;;8.04;100.00;98043.69;4106910;28;20218;-45
2023/12/10 07:25:30;;;;;;;1.35;1.25;;;;;;;8.04;100.00;98032.81;4095680;28;20213;-45
2023/12/10 07:27:32;;;;;;;1.45;1.20;;;;;;;8.05;100.00;98040.72;4079061;29;20219;-44
2023/12/10 07:29:34;;;;;;;6.68;1.95;;;;;;;8.07;100.00;98048.63;4079940;29;20218;-45
2023/12/10 07:31:36;;;;;;;1.75;1.65;;;;;;;8.09;100.00;98050.06;4097276;28;20450;-44
2023/12/10 07:33:37;;;;;;;1.05;1.05;;;;;;;8.03;100.00;98061.13;4096736;28;20270;-45
2023/12/10 07:35:39;;;;;;;1.58;1.48;;;;;;;7.99;100.00;98057.22;4090277;28;20211;-45
2023/12/10 07:37:41;;;;;;;4.28;1.70;;;;;;;8.03;100.00;98050.22;4095578;28;20293;-45
2023/12/10 07:39:42;;;;;;;3.50;2.03;;;;;;;8.01;100.00;98057.81;4108525;28;20214;-45
2023/12/10 07:41:44;;;;;;;12.73;2.78;;;;;;;8.01;100.00;98057.81;4096915;28;20258;-45
2023/12/10 07:43:46;;;;;;;2.35;1.58;;;;;;;7.98;100.00;98055.56;4096009;28;20220;-44
2023/12/10 07:45:47;;;;;;;2.55;1.42;;;;;;;7.98;100.00;98050.97;4107011;28;20270;-44
2023/12/10 07:47:49;;;;;;;6.35;1.60;;;;;;;8.06;100.00;98068.78;4097583;28;20716;-45
2023/12/10 07:49:51;;;;;;;13.93;2.85;;;;;;;8.01;100.00;98055.91;4113833;28;20226;-45
2023/12/10 07:51:53;;;;;;;2.58;1.90;;;;;;;8.08;100.00;98069.41;4093449;28;20199;-45
2023/12/10 07:53:55;;;;;;;1.00;1.00;;;;;;;8.09;100.00;98055.50;4098115;28;20238;-45
2023/12/10 07:55:57;;;;;;;2.95;1.20;;;;;;;8.14;100.00;98062.94;4096426;28;20227;-45
2023/12/10 07:57:59;;;;;;;1.98;1.50;;;;;;;8.14;100.00;98060.22;4079231;29;20675;-45
2023/12/10 08:00:01;;;;;;;8.40;1.73;;;;;;;8.16;100.00;98074.44;4094519;28;20221;-45
2023/12/10 08:02:03;;;;;;;5.72;2.30;;;;;;;8.10;100.00;98064.50;4109610;28;20301;-45
2023/12/10 08:04:04;;;;;;;7.53;2.30;;;;;;;8.13;100.00;98069.47;4095466;28;20226;-45
2023/12/10 08:06:08;;;;;;;1.25;1.15;;;;;;;8.22;100.00;98087.13;4076906;29;20232;-46
2023/12/10 08:08:09;;;;;;;3.40;1.55;;;;;;;8.22;100.00;98071.56;4099974;28;20208;-44
2023/12/10 08:10:11;;;;;;;3.72;1.67;;;;;;;8.21;100.00;98061.75;4112169;28;20289;-45
2023/12/10 08:12:13;;;;;;;2.08;1.85;;;;;;;8.22;100.00;98073.50;4097615;28;20255;-44
2023/12/10 08:14:14;;;;;;;2.10;1.95;;;;;;;8.20;100.00;98070.16;4090002;28;20282;-46
2023/12/10 08:16:17;;;;;;;1.52;1.50;;;;;;;8.19;100.00;98076.66;4090829;28;20764;-45
2023/12/10 08:18:18;;;;;;;1.90;1.80;;;;;;;8.18;100.00;98073.13;4092151;28;20211;-45
2023/12/10 08:20:20;;;;;;;11.23;1.90;;;;;;;8.19;100.00;98071.22;4092634;28;20238;-45
2023/12/10 08:22:22;;;;;;;4.93;2.03;;;;;;;8.21;100.00;98077.28;4092392;28;20282;-46
2023/12/10 08:24:26;;;;;;;1.67;1.58;;;;;;;8.25;100.00;98092.91;4096882;28;20290;-45
2023/12/10 08:26:28;;;;;;;2.25;2.05;;;;;;;8.21;100.00;98096.38;4095402;28;20716;-45
2023/12/10 08:28:30;;;;;;;2.38;1.73;;;;;;;8.14;100.00;98101.09;4088760;28;20224;-46
2023/12/10 08:30:32;;;;;;;3.03;1.30;;;;;;;8.21;100.00;98099.09;4094496;28;20222;-45
2023/12/10 08:32:33;;;;;;;4.38;1.15;;;;;;;8.18;100.00;98096.81;4097470;28;20207;-45
2023/12/10 08:34:36;;;;;;;2.28;1.80;;;;;;;8.24;100.00;98109.50;4089343;28;20305;-46
2023/12/10 08:36:40;;;;;;;2.53;1.88;;;;;;;8.25;100.00;98116.59;4096000;28;20231;-45
2023/12/10 08:38:42;;;;;;;3.15;1.35;;;;;;;8.20;100.00;98121.94;4078106;29;20215;-45
2023/12/10 08:40:44;;;;;;;19.90;2.80;;;;;;;8.26;100.00;98115.50;4101194;28;20603;-44
2023/12/10 08:42:46;;;;;;;10.93;2.40;;;;;;;8.28;100.00;98116.13;4109226;28;20218;-45
2023/12/10 08:44:48;;;;;;;3.47;1.35;;;;;;;8.27;100.00;98117.16;4095217;28;20211;-45
2023/12/10 08:46:53;;;;;;;7.97;1.70;;;;;;;8.29;100.00;98123.22;4096269;28;20240;-45
2023/12/10 08:49:02;;;;;;;0.95;0.95;;;;;;;8.35;100.00;98116.78;4092507;28;20948;-44
2023/12/10 08:51:06;;;;;;;5.45;2.50;;;;;;;8.39;100.00;98128.84;4089041;28;20219;-45
2023/12/10 08:53:08;;;;;;;1.15;0.93;;;;;;;8.40;100.00;98125.03;4087955;28;20287;-45
2023/12/10 08:55:10;;;;;;;6.18;1.40;;;;;;;8.42;100.00;98131.09;4111270;28;20297;-45
2023/12/10 08:57:13;;;;;;;1.92;1.77;;;;;;;8.45;100.00;98128.69;4107413;28;20706;-46
2023/12/10 08:59:15;;;;;;;2.72;2.10;;;;;;;8.43;100.00;98135.47;4092199;28;20214;-44
2023/12/10 09:01:17;;;;;;;3.45;2.05;;;;;;;8.45;100.00;98125.97;4111488;28;20263;-45
2023/12/10 09:03:20;;;;;;;7.78;1.40;;;;;;;8.46;100.00;98132.22;4095332;28;20721;-44
2023/12/10 09:05:22;;;;;;;10.60;1.75;;;;;;;8.44;100.00;98126.22;4107680;28;20273;-46
2023/12/10 09:07:24;;;;;;;7.55;2.00;;;;;;;8.41;100.00;98143.06;4096713;28;20323;-47
2023/12/10 09:09:25;;;;;;;10.65;2.97;;;;;;;8.41;100.00;98143.06;4094665;28;20365;-46
2023/12/10 09:11:27;;;;;;;5.50;1.90;;;;;;;8.41;100.00;98160.25;4092103;28;20247;-45
2023/12/10 09:13:30;;;;;;;16.15;1.50;;;;;;;8.44;100.00;98143.41;4089606;28;20215;-44
2023/12/10 09:15:32;;;;;;;1.83;1.73;;;;;;;8.43;100.00;98155.34;4088543;28;20633;-46
2023/12/10 09:17:33;;;;;;;0.90;0.88;;;;;;;8.45;100.00;98158.69;4090148;28;20707;-45
2023/12/10 09:19:43;;;;;;;2.30;2.20;;;;;;;8.45;100.00;98155.13;4090933;28;20692;-45
2023/12/10 09:21:45;;;;;;;1.05;1.05;;;;;;;8.44;100.00;98172.56;4091356;28;20215;-45
2023/12/10 09:23:47;;;;;;;1.95;1.42;;;;;;;8.49;100.00;98167.19;4087867;28;20208;-46
2023/12/10 09:25:48;;;;;;;1.92;1.55;;;;;;;8.49;100.00;98168.00;4093878;28;20207;-46
2023/12/10 09:27:50;;;;;;;1.30;1.05;;;;;;;8.52;100.00;98155.78;4096185;28;20262;-45
2023/12/10 09:29:52;;;;;;;4.35;2.08;;;;;;;8.55;100.00;98161.56;4096111;28;20654;-46
2023/12/10 09:31:54;;;;;;;6.15;3.10;;;;;;;8.53;100.00;98180.09;4112487;28;20300;-45
2023/12/10 09:33:55;;;;;;;1.23;1.23;;;;;;;8.56;100.00;98187.78;4097345;28;20285;-46